createdAt,value
2022-11-29T00:00:47.553Z,5.81
2022-11-29T00:03:14.901Z,5.76
2022-11-29T00:05:41.570Z,6.10
2022-11-29T00:08:08.163Z,6.14
2022-11-29T00:10:37.556Z,6.31
2022-11-29T00:13:04.457Z,6.03
2022-11-29T00:15:31.102Z,6.00
2022-11-29T00:17:57.725Z,5.54
2022-11-29T00:20:24.413Z,5.96
2022-11-29T00:22:51.129Z,6.27
2022-11-29T00:25:17.763Z,6.11
2022-11-29T00:27:44.338Z,6.00
2022-11-29T00:30:11.232Z,6.02
2022-11-29T00:32:37.809Z,6.34
2022-11-29T00:35:09.459Z,5.91
2022-11-29T00:37:36.544Z,5.54
2022-11-29T00:40:04.001Z,5.86
2022-11-29T00:42:30.627Z,6.02
2022-11-29T00:44:57.379Z,6.12
2022-11-29T00:47:24.025Z,6.21
2022-11-29T00:49:50.662Z,5.60
2022-11-29T00:52:17.260Z,5.90
2022-11-29T00:54:44.200Z,5.77
2022-11-29T00:57:11.028Z,5.64
2022-11-29T00:59:37.618Z,5.60
2022-11-29T01:02:04.255Z,5.77
2022-11-29T01:04:30.885Z,5.83
2022-11-29T01:06:57.479Z,5.87
2022-11-29T01:09:24.121Z,6.10
2022-11-29T01:11:50.756Z,5.86
2022-11-29T01:14:17.464Z,5.88
2022-11-29T01:16:44.121Z,6.53
2022-11-29T01:19:10.826Z,5.57
2022-11-29T01:21:37.507Z,6.04
2022-11-29T01:24:04.237Z,5.75
2022-11-29T01:26:30.831Z,5.88
2022-11-29T01:31:41.459Z,5.69
2022-11-29T01:34:08.199Z,5.33
2022-11-29T01:36:34.794Z,5.55
2022-11-29T01:39:01.587Z,5.66
2022-11-29T01:41:29.878Z,5.58
2022-11-29T01:44:12.600Z,5.56
2022-11-29T01:46:42.664Z,5.42
2022-11-29T01:49:18.092Z,5.54
2022-11-29T01:51:50.393Z,5.32
2022-11-29T01:54:17.155Z,5.25
2022-11-29T01:56:44.079Z,5.95
2022-11-29T01:59:12.825Z,5.69
2022-11-29T02:01:39.483Z,5.55
2022-11-29T02:04:06.260Z,5.32
2022-11-29T02:06:32.888Z,5.16
2022-11-29T02:08:59.530Z,5.17
2022-11-29T02:11:53.080Z,5.54
2022-11-29T02:14:40.965Z,5.82
2022-11-29T02:17:30.931Z,5.49
2022-11-29T02:20:34.439Z,5.45
2022-11-29T02:23:30.046Z,5.94
2022-11-29T02:26:24.890Z,5.91
2022-11-29T02:29:19.824Z,5.55
2022-11-29T02:31:58.859Z,5.77
2022-11-29T02:34:25.302Z,5.87
2022-11-29T02:37:11.807Z,5.75
2022-11-29T02:39:56.827Z,5.37
2022-11-29T02:42:29.487Z,5.94
2022-11-29T02:45:10.361Z,5.70
2022-11-29T02:47:47.442Z,5.80
2022-11-29T02:50:29.347Z,5.94
2022-11-29T02:53:18.623Z,5.97
2022-11-29T02:56:10.279Z,5.33
2022-11-29T02:58:42.804Z,5.22
2022-11-29T03:01:21.342Z,5.02
2022-11-29T03:04:00.445Z,5.57
2022-11-29T03:06:45.128Z,5.21
2022-11-29T03:09:23.808Z,4.81
2022-11-29T03:12:39.818Z,5.13
2022-11-29T03:15:24.655Z,5.08
2022-11-29T03:17:54.228Z,5.38
2022-11-29T03:20:35.933Z,5.50
2022-11-29T03:23:24.717Z,5.40
2022-11-29T03:25:58.188Z,5.73
2022-11-29T03:28:29.375Z,5.44
2022-11-29T03:31:06.924Z,5.68
2022-11-29T03:33:55.095Z,5.58
2022-11-29T03:36:33.634Z,5.75
2022-11-29T03:39:03.565Z,5.35
2022-11-29T03:41:36.576Z,5.28
2022-11-29T03:44:03.062Z,5.56
2022-11-29T03:46:48.310Z,6.06
2022-11-29T03:49:24.845Z,5.96
2022-11-29T03:52:29.003Z,5.79
2022-11-29T03:54:55.457Z,5.73
2022-11-29T03:57:25.518Z,5.73
2022-11-29T03:59:57.049Z,6.02
2022-11-29T04:02:55.280Z,5.59
2022-11-29T04:05:43.149Z,5.84
2022-11-29T04:08:40.596Z,5.91
2022-11-29T04:11:19.209Z,5.89
2022-11-29T04:13:59.719Z,5.31
2022-11-29T04:16:47.652Z,5.68
2022-11-29T04:19:38.971Z,5.72
2022-11-29T04:22:20.228Z,5.29
2022-11-29T04:25:06.595Z,5.47
2022-11-29T04:27:39.092Z,5.36
2022-11-29T04:30:20.625Z,5.24
2022-11-29T04:33:24.535Z,5.44
2022-11-29T04:36:35.222Z,5.51
2022-11-29T04:39:22.985Z,5.46
2022-11-29T04:41:57.729Z,5.70
2022-11-29T04:45:06.408Z,5.14
2022-11-29T04:48:10.494Z,4.87
2022-11-29T04:50:51.006Z,4.83
2022-11-29T04:53:38.701Z,5.29
2022-11-29T04:56:17.781Z,4.92
2022-11-29T04:58:51.864Z,4.62
2022-11-29T05:01:53.456Z,4.35
2022-11-29T05:04:42.058Z,4.32
2022-11-29T05:07:18.028Z,4.35
2022-11-29T05:10:08.937Z,4.45
2022-11-29T05:12:54.649Z,3.95
2022-11-29T05:15:30.135Z,4.19
2022-11-29T05:18:15.073Z,4.08
2022-11-29T05:20:57.705Z,4.27
2022-11-29T05:23:47.502Z,3.84
2022-11-29T05:26:13.980Z,4.37
2022-11-29T05:28:44.177Z,4.23
2022-11-29T05:31:16.842Z,4.34
2022-11-29T05:33:56.532Z,4.26
2022-11-29T05:36:48.321Z,4.38
2022-11-29T05:39:56.884Z,4.73
2022-11-29T05:42:46.605Z,5.36
2022-11-29T05:45:18.294Z,4.68
2022-11-29T05:48:18.730Z,5.89
2022-11-29T05:51:01.044Z,6.37
2022-11-29T05:53:50.879Z,5.98
2022-11-29T05:56:23.336Z,6.49
2022-11-29T05:59:20.821Z,6.59
2022-11-29T06:01:50.180Z,6.99
2022-11-29T06:04:29.048Z,7.28
2022-11-29T06:07:11.848Z,6.60
2022-11-29T06:09:50.852Z,6.80
2022-11-29T06:12:21.330Z,6.44
2022-11-29T06:15:09.121Z,6.71
2022-11-29T06:18:06.569Z,7.14
2022-11-29T06:20:54.323Z,6.84
2022-11-29T06:23:42.159Z,6.01
2022-11-29T06:26:30.132Z,6.00
2022-11-29T06:29:25.433Z,6.70
2022-11-29T06:32:19.767Z,6.72
2022-11-29T06:35:02.379Z,6.96
2022-11-29T06:37:49.374Z,7.18
2022-11-29T06:40:16.115Z,6.86
2022-11-29T06:42:42.886Z,7.25
2022-11-29T06:45:13.555Z,7.71
2022-11-29T06:47:44.028Z,7.29
2022-11-29T06:50:47.997Z,7.11
2022-11-29T06:53:32.942Z,6.71
2022-11-29T06:56:26.597Z,6.07
2022-11-29T06:58:56.172Z,6.37
2022-11-29T07:01:41.629Z,6.62
2022-11-29T07:04:24.839Z,5.84
2022-11-29T07:06:51.720Z,5.75
2022-11-29T07:09:20.149Z,5.50
2022-11-29T07:11:47.237Z,5.91
2022-11-29T07:14:14.044Z,6.83
2022-11-29T07:16:54.457Z,5.90
2022-11-29T07:19:35.711Z,5.02
2022-11-29T07:22:14.492Z,5.64
2022-11-29T07:24:50.967Z,4.65
2022-11-29T07:27:20.127Z,4.80
2022-11-29T07:29:50.659Z,4.70
2022-11-29T07:32:23.291Z,4.49
2022-11-29T07:35:05.349Z,4.33
2022-11-29T07:37:56.015Z,4.18
2022-11-29T07:40:27.655Z,3.97
2022-11-29T07:43:06.178Z,4.21
2022-11-29T07:45:33.655Z,3.86
2022-11-29T07:48:00.291Z,4.15
2022-11-29T07:50:27.076Z,4.08
2022-11-29T07:52:53.892Z,3.90
2022-11-29T07:55:21.033Z,3.93
2022-11-29T07:57:48.208Z,3.78
2022-11-29T08:00:15.199Z,3.81
2022-11-29T08:02:41.953Z,4.05
2022-11-29T08:05:09.136Z,4.10
2022-11-29T08:07:36.671Z,3.77
2022-11-29T08:10:04.705Z,3.63
2022-11-29T08:12:31.271Z,3.37
2022-11-29T08:14:57.943Z,3.54
2022-11-29T08:17:24.546Z,3.74
2022-11-29T08:19:51.327Z,3.27
2022-11-29T08:22:19.188Z,3.54
2022-11-29T08:24:46.007Z,3.50
2022-11-29T08:27:12.874Z,3.16
2022-11-29T08:29:39.512Z,3.39
2022-11-29T08:32:06.337Z,3.57
2022-11-29T08:34:34.192Z,3.38
2022-11-29T08:37:00.882Z,3.34
2022-11-29T08:39:27.486Z,3.44
2022-11-29T08:41:54.128Z,3.36
2022-11-29T08:44:20.832Z,3.42
2022-11-29T08:46:47.449Z,3.43
2022-11-29T08:49:14.047Z,3.45
2022-11-29T08:51:40.684Z,3.23
2022-11-29T08:54:07.345Z,3.11
2022-11-29T08:59:20.690Z,3.04
2022-11-29T09:01:47.358Z,3.32
2022-11-29T09:04:14.232Z,3.19
2022-11-29T09:06:41.588Z,4.06
2022-11-29T09:09:08.257Z,4.98
2022-11-29T09:11:35.181Z,4.64
2022-11-29T09:14:03.523Z,4.68
2022-11-29T09:16:33.136Z,5.89
2022-11-29T09:18:59.788Z,5.78
2022-11-29T09:21:27.314Z,6.16
2022-11-29T09:23:54.250Z,6.55
2022-11-29T09:26:20.855Z,6.55
2022-11-29T09:28:47.488Z,6.28
2022-11-29T09:31:15.276Z,6.24
2022-11-29T09:33:42.029Z,6.32
2022-11-29T09:36:10.348Z,6.07
2022-11-29T09:38:37.031Z,5.59
2022-11-29T09:41:06.757Z,5.67
2022-11-29T09:43:37.370Z,5.52
2022-11-29T09:46:22.326Z,5.69
2022-11-29T09:49:29.793Z,5.76
2022-11-29T09:52:26.650Z,5.56
2022-11-29T09:55:13.398Z,5.27
2022-11-29T09:57:40.048Z,5.46
2022-11-29T10:00:10.925Z,5.25
2022-11-29T10:02:42.468Z,5.22
2022-11-29T10:05:15.260Z,4.81
2022-11-29T10:07:46.190Z,3.81
2022-11-29T10:10:22.777Z,3.03
2022-11-29T10:12:52.764Z,3.56
2022-11-29T10:15:23.892Z,3.84
2022-11-29T10:18:16.560Z,4.64
2022-11-29T10:20:48.637Z,4.96
2022-11-29T10:23:24.341Z,5.04
2022-11-29T10:25:52.514Z,5.31
2022-11-29T10:28:26.507Z,5.43
2022-11-29T10:30:53.938Z,5.45
2022-11-29T10:33:30.675Z,5.37
2022-11-29T10:35:59.742Z,5.50
2022-11-29T10:38:31.248Z,5.78
2022-11-29T10:41:06.438Z,6.06
2022-11-29T10:43:33.041Z,5.63
2022-11-29T10:45:59.650Z,5.85
2022-11-29T10:48:28.613Z,5.56
2022-11-29T10:50:55.205Z,5.40
2022-11-29T10:53:31.888Z,5.36
2022-11-29T10:56:16.528Z,5.15
2022-11-29T10:58:56.491Z,4.88
2022-11-29T11:01:23.363Z,5.16
2022-11-29T11:03:53.188Z,5.55
2022-11-29T11:06:44.628Z,5.20
2022-11-29T11:09:14.434Z,4.55
2022-11-29T11:11:41.061Z,4.46
2022-11-29T11:14:31.330Z,4.21
2022-11-29T11:17:13.947Z,3.39
2022-11-29T11:19:40.566Z,2.65
2022-11-29T11:22:07.222Z,2.51
2022-11-29T11:24:36.920Z,2.04
2022-11-29T11:27:03.600Z,2.12
2022-11-29T11:29:36.170Z,2.09
2022-11-29T11:32:02.811Z,1.63
2022-11-29T11:34:34.320Z,1.50
2022-11-29T11:37:15.901Z,1.74
2022-11-29T11:39:43.037Z,1.23
2022-11-29T11:42:14.466Z,1.51
2022-11-29T11:44:47.205Z,1.26
2022-11-29T11:47:19.765Z,1.33
2022-11-29T11:49:58.762Z,1.52
2022-11-29T11:52:27.586Z,1.36
2022-11-29T11:54:59.071Z,1.32
2022-11-29T11:57:26.383Z,1.83
2022-11-29T11:59:54.244Z,1.02
2022-11-29T12:02:36.724Z,1.19
2022-11-29T12:05:05.216Z,1.41
2022-11-29T12:08:06.239Z,1.16
2022-11-29T12:10:26.910Z,1.17
2022-11-29T12:12:53.618Z,1.39
2022-11-29T12:15:21.168Z,1.05
2022-11-29T12:17:51.732Z,1.27
2022-11-29T12:20:27.017Z,1.01
2022-11-29T12:22:53.540Z,1.91
2022-11-29T12:25:25.641Z,1.27
2022-11-29T12:27:52.318Z,1.21
2022-11-29T12:30:19.051Z,1.53
2022-11-29T12:33:01.427Z,1.30
2022-11-29T12:35:43.543Z,1.11
2022-11-29T12:38:33.201Z,3.53
2022-11-29T12:41:02.594Z,3.48
2022-11-29T12:44:00.443Z,1.15
2022-11-29T12:46:28.008Z,1.77
2022-11-29T12:49:10.075Z,1.07
2022-11-29T12:51:51.809Z,1.20
2022-11-29T12:54:40.123Z,1.28
2022-11-29T12:57:18.859Z,1.07
2022-11-29T13:00:04.002Z,1.11
2022-11-29T13:02:49.459Z,1.18
2022-11-29T13:05:41.598Z,1.26
2022-11-29T13:08:12.541Z,1.44
2022-11-29T13:10:57.358Z,1.08
2022-11-29T13:13:31.131Z,1.25
2022-11-29T13:16:30.904Z,1.13
2022-11-29T13:19:13.775Z,1.23
2022-11-29T13:21:42.947Z,1.32
2022-11-29T13:24:32.471Z,1.71
2022-11-29T13:27:01.735Z,1.59
2022-11-29T13:29:28.387Z,1.54
2022-11-29T13:31:54.991Z,1.09
2022-11-29T13:34:32.623Z,1.32
2022-11-29T13:37:31.124Z,2.31
2022-11-29T13:40:17.696Z,1.35
2022-11-29T13:43:15.146Z,1.25
2022-11-29T13:45:51.209Z,1.62
2022-11-29T13:48:45.790Z,1.57
2022-11-29T13:51:28.620Z,2.48
2022-11-29T13:53:55.708Z,1.86
2022-11-29T13:56:39.316Z,1.65
2022-11-29T13:59:07.474Z,1.49
2022-11-29T14:01:45.327Z,1.52
2022-11-29T14:04:34.705Z,1.59
2022-11-29T14:07:09.522Z,1.62
2022-11-29T14:09:43.467Z,1.67
2022-11-29T14:12:32.993Z,1.79
2022-11-29T14:15:14.839Z,1.53
2022-11-29T14:18:27.490Z,1.80
2022-11-29T14:20:55.177Z,1.64
2022-11-29T14:23:50.951Z,1.55
2022-11-29T14:26:28.097Z,1.68
2022-11-29T14:28:55.314Z,1.99
2022-11-29T14:31:47.381Z,1.93
2022-11-29T14:34:14.037Z,1.97
2022-11-29T14:37:19.161Z,1.85
2022-11-29T14:39:46.873Z,1.68
2022-11-29T14:42:18.081Z,1.80
2022-11-29T14:44:47.254Z,1.77
2022-11-29T14:47:22.911Z,1.93
2022-11-29T14:49:49.645Z,1.66
2022-11-29T14:52:22.344Z,1.96
2022-11-29T14:54:54.897Z,1.91
2022-11-29T14:57:49.685Z,1.76
2022-11-29T15:00:34.710Z,2.76
2022-11-29T15:03:02.218Z,1.92
2022-11-29T15:05:34.999Z,1.80
2022-11-29T15:08:15.352Z,1.58
2022-11-29T15:10:49.721Z,1.69
2022-11-29T15:13:22.708Z,1.84
2022-11-29T15:16:26.596Z,2.08
2022-11-29T15:19:09.080Z,1.77
2022-11-29T15:22:13.057Z,2.44
2022-11-29T15:25:12.656Z,1.82
2022-11-29T15:28:04.035Z,1.78
2022-11-29T15:30:38.749Z,2.12
2022-11-29T15:33:18.111Z,2.68
2022-11-29T15:35:51.494Z,1.84
2022-11-29T15:38:19.167Z,1.87
2022-11-29T15:40:52.924Z,2.19
2022-11-29T15:43:23.395Z,1.62
2022-11-29T15:45:51.310Z,1.81
2022-11-29T15:48:33.272Z,1.62
2022-11-29T15:51:11.459Z,1.73
2022-11-29T15:53:50.731Z,1.67
2022-11-29T15:56:54.976Z,2.52
2022-11-29T15:59:38.673Z,2.27
2022-11-29T16:02:15.616Z,2.10
2022-11-29T16:04:46.524Z,1.64
2022-11-29T16:07:13.826Z,1.84
2022-11-29T16:09:45.149Z,1.84
2022-11-29T16:12:14.039Z,1.77
2022-11-29T16:14:51.412Z,2.06
2022-11-29T16:17:19.441Z,2.18
2022-11-29T16:19:46.238Z,2.07
2022-11-29T16:22:12.805Z,2.03
2022-11-29T16:25:00.493Z,3.78
2022-11-29T16:27:27.151Z,2.01
2022-11-29T16:29:53.789Z,2.02
2022-11-29T16:32:41.508Z,1.96
2022-11-29T16:35:13.800Z,1.79
2022-11-29T16:37:42.385Z,2.04
2022-11-29T16:40:21.130Z,2.06
2022-11-29T16:43:03.068Z,2.22
2022-11-29T16:45:31.824Z,2.12
2022-11-29T16:47:58.680Z,2.18
2022-11-29T16:50:28.826Z,2.37
2022-11-29T16:52:56.976Z,2.39
2022-11-29T16:55:23.834Z,2.66
2022-11-29T16:57:50.464Z,2.73
2022-11-29T17:00:28.817Z,2.52
2022-11-29T17:02:55.582Z,2.57
2022-11-29T17:05:22.255Z,3.43
2022-11-29T17:07:48.918Z,3.39
2022-11-29T17:10:18.040Z,3.83
2022-11-29T17:12:48.042Z,4.26
2022-11-29T17:15:15.141Z,4.66
2022-11-29T17:17:42.510Z,5.31
2022-11-29T17:20:11.295Z,4.10
2022-11-29T17:22:37.945Z,3.83
2022-11-29T17:25:04.785Z,3.92
2022-11-29T17:27:31.416Z,3.91
2022-11-29T17:29:58.048Z,4.53
2022-11-29T17:32:26.896Z,4.49
2022-11-29T17:34:53.898Z,4.16
2022-11-29T17:37:20.519Z,3.68
2022-11-29T17:39:47.330Z,3.87
2022-11-29T17:42:14.167Z,4.06
2022-11-29T17:44:41.120Z,3.88
2022-11-29T17:47:07.827Z,3.67
2022-11-29T17:49:34.455Z,4.02
2022-11-29T17:52:01.258Z,4.05
2022-11-29T17:54:27.838Z,4.13
2022-11-29T17:56:54.477Z,4.64
2022-11-29T17:59:21.121Z,6.36
2022-11-29T18:01:47.893Z,5.79
2022-11-29T18:04:14.663Z,5.95
2022-11-29T18:06:41.636Z,5.97
2022-11-29T18:09:09.255Z,7.14
2022-11-29T18:11:46.983Z,6.39
2022-11-29T18:14:24.250Z,6.48
2022-11-29T18:16:51.198Z,6.36
2022-11-29T18:19:18.982Z,6.42
2022-11-29T18:21:45.610Z,7.08
2022-11-29T18:24:12.271Z,7.08
2022-11-29T18:26:38.973Z,6.95
2022-11-29T18:29:06.155Z,6.79
2022-11-29T18:31:34.678Z,7.18
2022-11-29T18:34:02.287Z,7.80
2022-11-29T18:36:30.617Z,6.84
2022-11-29T18:39:01.204Z,6.89
2022-11-29T18:41:28.324Z,6.31
2022-11-29T18:43:59.714Z,6.44
2022-11-29T18:46:26.770Z,6.60
2022-11-29T18:48:53.410Z,6.65
2022-11-29T18:51:20.467Z,6.42
2022-11-29T18:53:47.353Z,6.50
2022-11-29T18:56:24.280Z,6.59
2022-11-29T18:58:58.498Z,7.18
2022-11-29T19:01:29.491Z,7.03
2022-11-29T19:03:57.667Z,6.36
2022-11-29T19:06:25.889Z,6.72
2022-11-29T19:08:52.540Z,6.26
2022-11-29T19:11:20.775Z,6.23
2022-11-29T19:13:47.667Z,6.02
2022-11-29T19:16:16.159Z,5.85
2022-11-29T19:18:42.951Z,5.87
2022-11-29T19:21:13.830Z,5.70
2022-11-29T19:23:40.678Z,5.69
2022-11-29T19:26:11.340Z,5.40
2022-11-29T19:28:38.695Z,5.83
2022-11-29T19:31:05.602Z,5.63
2022-11-29T19:33:33.177Z,5.45
2022-11-29T19:36:14.066Z,5.79
2022-11-29T19:38:40.788Z,5.54
2022-11-29T19:41:31.207Z,5.52
2022-11-29T19:43:58.915Z,5.78
2022-11-29T19:46:29.852Z,6.24
2022-11-29T19:48:56.952Z,6.03
2022-11-29T19:51:23.881Z,5.94
2022-11-29T19:53:54.157Z,6.59
2022-11-29T19:56:20.832Z,6.96
2022-11-29T19:58:47.677Z,7.27
2022-11-29T20:01:15.225Z,7.16
2022-11-29T20:03:42.111Z,7.70
2022-11-29T20:06:09.247Z,7.68
2022-11-29T20:08:36.657Z,7.27
2022-11-29T20:11:13.221Z,7.35
2022-11-29T20:13:40.214Z,8.15
2022-11-29T20:16:13.667Z,8.17
2022-11-29T20:18:44.611Z,8.00
2022-11-29T20:21:25.994Z,7.78
2022-11-29T20:24:02.687Z,8.43
2022-11-29T20:26:29.999Z,7.71
2022-11-29T20:28:56.635Z,7.96
2022-11-29T20:31:23.535Z,8.90
2022-11-29T20:33:51.458Z,8.41
2022-11-29T20:36:36.665Z,7.83
2022-11-29T20:39:40.011Z,8.07
2022-11-29T20:42:25.605Z,7.72
2022-11-29T20:44:53.650Z,7.80
2022-11-29T20:47:41.561Z,8.28
2022-11-29T20:50:08.368Z,7.72
2022-11-29T20:52:56.714Z,8.13
2022-11-29T20:55:23.525Z,7.99
2022-11-29T20:57:50.311Z,9.07
2022-11-29T21:00:17.092Z,8.14
2022-11-29T21:02:43.761Z,8.13
2022-11-29T21:05:10.480Z,7.71
2022-11-29T21:07:37.166Z,8.12
2022-11-29T21:10:04.657Z,8.30
2022-11-29T21:12:31.625Z,7.87
2022-11-29T21:14:58.535Z,7.99
2022-11-29T21:17:33.178Z,7.35
2022-11-29T21:20:00.889Z,7.62
2022-11-29T21:22:49.195Z,7.48
2022-11-29T21:25:26.264Z,7.80
2022-11-29T21:27:53.413Z,8.47
2022-11-29T21:30:21.641Z,7.48
2022-11-29T21:32:48.499Z,7.76
2022-11-29T21:35:15.389Z,7.69
2022-11-29T21:37:42.060Z,7.90
2022-11-29T21:40:09.136Z,7.67
2022-11-29T21:42:36.227Z,7.56
2022-11-29T21:45:03.946Z,7.26
2022-11-29T21:47:31.940Z,7.53
2022-11-29T21:49:58.560Z,7.57
2022-11-29T21:52:25.208Z,7.59
2022-11-29T21:54:51.808Z,7.77
2022-11-29T21:57:18.416Z,7.63
2022-11-29T21:59:45.059Z,7.42
2022-11-29T22:02:11.841Z,7.51
2022-11-29T22:04:38.588Z,7.71
2022-11-29T22:07:05.260Z,7.81
2022-11-29T22:09:32.413Z,7.82
2022-11-29T22:11:59.242Z,7.62
2022-11-29T22:14:25.852Z,7.79
2022-11-29T22:16:56.785Z,7.39
2022-11-29T22:19:24.080Z,7.62
2022-11-29T22:21:52.961Z,8.23
2022-11-29T22:24:20.937Z,7.79
2022-11-29T22:26:47.835Z,8.21
2022-11-29T22:29:14.615Z,7.88
2022-11-29T22:31:42.023Z,7.91
2022-11-29T22:34:08.668Z,8.37
2022-11-29T22:36:35.676Z,7.74
2022-11-29T22:39:02.306Z,8.03
2022-11-29T22:41:28.984Z,7.72
2022-11-29T22:43:55.859Z,8.29
2022-11-29T22:46:23.492Z,8.49
2022-11-29T22:48:51.255Z,8.76
2022-11-29T22:51:19.503Z,8.58
2022-11-29T22:53:50.535Z,8.87
2022-11-29T22:56:17.556Z,8.38
2022-11-29T22:58:44.546Z,8.79
2022-11-29T23:01:12.958Z,9.09
2022-11-29T23:03:41.231Z,10.29
2022-11-29T23:06:08.856Z,9.81
2022-11-29T23:08:35.757Z,9.38
2022-11-29T23:11:02.658Z,9.26
2022-11-29T23:13:29.286Z,9.10
2022-11-29T23:15:55.877Z,9.87
2022-11-29T23:18:22.535Z,10.26
2022-11-29T23:20:49.161Z,9.30
2022-11-29T23:23:15.964Z,9.12
2022-11-29T23:25:48.901Z,9.35
2022-11-29T23:28:16.531Z,8.81
2022-11-29T23:30:43.108Z,8.34
2022-11-29T23:33:09.738Z,7.92
2022-11-29T23:35:36.478Z,7.58
2022-11-29T23:38:03.080Z,7.98
2022-11-29T23:40:29.674Z,7.77
2022-11-29T23:42:56.275Z,7.50
2022-11-29T23:45:22.982Z,6.80
2022-11-29T23:47:49.681Z,6.86
2022-11-29T23:50:16.404Z,6.97
2022-11-29T23:52:42.999Z,6.82
2022-11-29T23:55:16.774Z,6.42
2022-11-29T23:57:46.406Z,6.35
